createdAt,value
2018-05-09T12:13:20.091Z,58.04
2018-05-09T12:14:22.001Z,57.94
2018-05-09T12:15:24.069Z,57.39
2018-05-09T12:16:25.945Z,57.19
2018-05-09T12:17:27.779Z,57.58
2018-05-09T12:18:29.612Z,57.03
2018-05-09T12:19:31.519Z,58.00
2018-05-09T12:20:33.390Z,58.31
2018-05-09T12:21:35.270Z,57.93
2018-05-09T12:22:49.472Z,57.08
2018-05-09T12:23:51.322Z,55.65
2018-05-09T12:24:53.206Z,55.00
2018-05-09T12:25:55.087Z,55.00
2018-05-09T12:26:56.927Z,54.15
2018-05-09T12:27:58.751Z,53.08
2018-05-09T12:29:00.651Z,53.01
2018-05-09T12:30:02.603Z,51.84
2018-05-09T12:31:04.507Z,51.39
2018-05-09T12:32:18.751Z,50.60
2018-05-09T12:33:20.558Z,50.14
2018-05-09T12:34:22.436Z,50.46
2018-05-09T12:35:24.319Z,50.65
2018-05-09T12:36:26.190Z,50.29
2018-05-09T12:37:28.047Z,48.63
2018-05-09T12:38:29.931Z,48.05
2018-05-09T12:39:31.844Z,47.29
2018-05-09T12:40:33.728Z,47.09
2018-05-09T12:41:48.019Z,47.39
2018-05-09T12:42:49.959Z,47.12
2018-05-09T12:43:51.879Z,46.24
2018-05-09T12:44:53.800Z,45.54
2018-05-09T12:45:55.660Z,45.61
2018-05-09T12:46:57.498Z,46.08
2018-05-09T12:47:59.397Z,46.64
2018-05-09T12:49:01.274Z,47.42
2018-05-09T12:50:03.117Z,48.46
2018-05-09T12:51:17.296Z,50.21
2018-05-09T12:52:19.205Z,49.49
2018-05-09T12:53:21.111Z,50.92
2018-05-09T12:54:23.012Z,51.87
2018-05-09T12:55:24.852Z,52.81
2018-05-09T12:56:26.692Z,54.14
2018-05-09T12:57:28.576Z,55.21
2018-05-09T12:58:30.532Z,55.47
2018-05-09T12:59:32.381Z,55.28
2018-05-09T13:00:46.605Z,55.38
2018-05-09T13:01:48.492Z,55.18
2018-05-09T13:02:50.392Z,55.57
2018-05-09T13:03:52.291Z,55.93
2018-05-09T13:04:54.108Z,55.74
2018-05-09T13:05:55.923Z,56.41
2018-05-09T13:06:57.801Z,56.25
2018-05-09T13:07:59.685Z,55.87
2018-05-09T13:09:01.562Z,55.77
2018-05-09T13:10:15.719Z,55.54
2018-05-09T13:11:17.624Z,55.74
2018-05-09T13:12:19.527Z,56.64
2018-05-09T13:13:21.497Z,56.05
2018-05-09T13:14:23.268Z,54.80
2018-05-09T13:15:25.089Z,55.11
2018-05-09T13:16:26.968Z,53.34
2018-05-09T13:17:28.868Z,53.75
2018-05-09T13:18:30.740Z,53.75
2018-05-09T13:19:44.923Z,50.87
2018-05-09T13:20:46.777Z,50.29
2018-05-09T13:21:48.662Z,48.73
2018-05-09T13:22:50.562Z,48.66
2018-05-09T13:23:52.404Z,49.24
2018-05-09T13:24:54.224Z,49.15
2018-05-09T13:25:56.111Z,50.51
2018-05-09T13:26:57.981Z,52.64
2018-05-09T13:27:59.883Z,52.81
2018-05-09T13:29:14.050Z,53.00
2018-05-09T13:30:15.931Z,53.10
2018-05-09T13:31:17.811Z,53.78
2018-05-09T13:32:19.712Z,55.31
2018-05-09T13:33:21.562Z,55.11
2018-05-09T13:34:23.369Z,55.31
2018-05-09T13:35:25.244Z,55.69
2018-05-09T13:36:27.128Z,55.79
2018-05-09T13:37:29.030Z,56.67
2018-05-09T13:38:43.186Z,56.74
2018-05-09T13:39:45.094Z,58.00
2018-05-09T13:40:46.992Z,57.78
2018-05-09T13:41:48.877Z,57.87
2018-05-09T13:42:50.713Z,58.45
2018-05-09T13:43:52.537Z,59.13
2018-05-09T13:44:54.442Z,58.84
2018-05-09T13:45:56.423Z,58.84
2018-05-09T13:46:58.213Z,59.10
2018-05-09T13:48:12.369Z,60.07
2018-05-09T13:49:14.253Z,60.17
2018-05-09T13:50:16.162Z,60.36
2018-05-09T13:51:18.047Z,59.97
2018-05-09T13:52:19.879Z,59.13
2018-05-09T13:53:21.698Z,59.23
2018-05-09T13:54:23.596Z,59.13
2018-05-09T13:55:25.469Z,58.74
2018-05-09T13:56:27.350Z,58.84
2018-05-09T13:57:41.527Z,58.42
2018-05-09T13:58:43.432Z,59.00
2018-05-09T13:59:45.314Z,59.03
2018-05-09T14:00:47.217Z,59.91
2018-05-09T14:01:49.035Z,58.55
2018-05-09T14:02:50.854Z,58.04
2018-05-09T14:03:52.778Z,58.42
2018-05-09T14:04:54.672Z,58.72
2018-05-09T14:05:56.575Z,58.69
2018-05-09T14:07:10.764Z,58.59
2018-05-09T14:08:12.658Z,58.30
2018-05-09T14:09:14.546Z,57.79
2018-05-09T14:10:16.458Z,58.07
2018-05-09T14:11:18.292Z,58.17
2018-05-09T14:12:20.134Z,58.17
2018-05-09T14:13:22.034Z,58.27
2018-05-09T14:14:23.940Z,58.27
2018-05-09T14:15:25.898Z,58.07
2018-05-09T14:16:39.962Z,56.92
2018-05-09T14:17:41.836Z,57.40
2018-05-09T14:18:43.718Z,56.52
2018-05-09T14:19:45.619Z,55.82
2018-05-09T14:20:47.455Z,55.73
2018-05-09T14:21:49.270Z,55.63
2018-05-09T14:22:51.147Z,56.34
2018-05-09T14:23:53.044Z,56.43
2018-05-09T14:24:54.939Z,56.43
2018-05-09T14:26:09.092Z,55.78
2018-05-09T14:27:11.011Z,55.40
2018-05-09T14:28:12.912Z,55.40
2018-05-09T14:29:14.814Z,55.42
2018-05-09T14:30:16.732Z,54.84
2018-05-09T14:31:18.550Z,54.16
2018-05-09T14:32:20.524Z,54.23
2018-05-09T14:33:22.341Z,54.03
2018-05-09T14:34:24.243Z,54.03
2018-05-09T14:35:38.416Z,54.01
2018-05-09T14:36:40.321Z,55.07
2018-05-09T14:37:42.213Z,55.36
2018-05-09T14:38:44.092Z,55.56
2018-05-09T14:39:45.913Z,55.56
2018-05-09T14:40:47.768Z,56.62
2018-05-09T14:41:49.632Z,56.82
2018-05-09T14:42:51.539Z,56.79
2018-05-09T14:43:53.434Z,57.08
2018-05-09T14:45:07.596Z,57.98
2018-05-09T14:46:09.496Z,58.37
2018-05-09T14:47:11.398Z,58.56
2018-05-09T14:48:13.275Z,58.11
2018-05-09T14:49:15.090Z,57.91
2018-05-09T14:50:16.913Z,57.33
2018-05-09T14:51:18.809Z,57.14
2018-05-09T14:52:20.709Z,55.49
2018-05-09T14:53:22.606Z,55.78
2018-05-09T14:54:36.913Z,55.40
2018-05-09T14:55:38.637Z,56.26
2018-05-09T14:56:40.522Z,56.82
2018-05-09T14:57:42.409Z,55.76
2018-05-09T14:58:44.230Z,55.56
2018-05-09T14:59:46.096Z,56.34
2018-05-09T15:00:48.002Z,56.82
2018-05-09T15:01:49.897Z,56.72
2018-05-09T15:02:51.774Z,56.34
2018-05-09T15:04:05.926Z,56.62
2018-05-09T15:05:07.816Z,56.70
2018-05-09T15:06:09.712Z,56.98
2018-05-09T15:07:11.583Z,57.08
2018-05-09T15:08:13.404Z,56.79
2018-05-09T15:09:15.213Z,57.66
2018-05-09T15:10:17.074Z,56.98
2018-05-09T15:11:18.993Z,57.46
2018-05-09T15:12:20.891Z,57.56
2018-05-09T15:13:35.091Z,57.66
2018-05-09T15:14:36.964Z,56.79
2018-05-09T15:15:38.843Z,57.18
2018-05-09T15:16:40.725Z,57.66
2018-05-09T15:17:42.537Z,57.76
2018-05-09T15:18:44.353Z,57.76
2018-05-09T15:19:46.229Z,57.86
2018-05-09T15:20:48.132Z,57.28
2018-05-09T15:21:50.000Z,57.86
2018-05-09T15:23:04.635Z,57.66
2018-05-09T15:24:06.497Z,58.04
2018-05-09T15:25:08.398Z,58.24
2018-05-09T15:26:10.275Z,57.66
2018-05-09T15:27:12.120Z,57.76
2018-05-09T15:28:13.938Z,57.66
2018-05-09T15:29:15.804Z,57.28
2018-05-09T15:30:17.703Z,57.86
2018-05-09T15:31:19.603Z,58.14
2018-05-09T15:32:33.775Z,58.47
2018-05-09T15:33:35.652Z,57.88
2018-05-09T15:34:37.555Z,57.88
2018-05-09T15:35:39.457Z,58.01
2018-05-09T15:36:41.269Z,57.23
2018-05-09T15:37:43.181Z,57.14
2018-05-09T15:38:45.086Z,57.14
2018-05-09T15:39:46.859Z,56.46
2018-05-09T15:40:48.739Z,55.71
2018-05-09T15:42:02.909Z,55.62
2018-05-09T15:43:04.788Z,55.04
2018-05-09T15:44:06.694Z,54.74
2018-05-09T15:45:08.577Z,55.26
2018-05-09T15:46:10.416Z,54.48
2018-05-09T15:47:12.253Z,54.48
2018-05-09T15:48:14.137Z,53.51
2018-05-09T15:49:16.036Z,54.21
2018-05-09T15:50:18.022Z,53.73
2018-05-09T15:51:32.080Z,53.85
2018-05-09T15:52:33.964Z,52.88
2018-05-09T15:53:35.864Z,52.88
2018-05-09T15:54:37.761Z,52.01
2018-05-09T15:55:39.587Z,51.81
2018-05-09T15:56:41.506Z,51.91
2018-05-09T15:57:43.316Z,52.88
2018-05-09T15:58:45.189Z,53.15
2018-05-09T15:59:47.073Z,53.66
2018-05-09T16:01:01.246Z,53.37
2018-05-09T16:02:03.121Z,53.17
2018-05-09T16:03:05.032Z,53.56
2018-05-09T16:04:06.934Z,52.88
2018-05-09T16:05:08.776Z,52.69
2018-05-09T16:06:10.596Z,52.78
2018-05-09T16:07:12.471Z,51.43
2018-05-09T16:08:14.368Z,51.50
2018-05-09T16:09:16.270Z,52.18
2018-05-09T16:10:30.498Z,52.76
2018-05-09T16:11:32.342Z,52.66
2018-05-09T16:12:34.217Z,52.64
2018-05-09T16:13:36.117Z,53.12
2018-05-09T16:14:37.936Z,53.61
2018-05-09T16:15:39.775Z,53.80
2018-05-09T16:16:41.675Z,53.31
2018-05-09T16:17:43.574Z,53.51
2018-05-09T16:18:45.460Z,54.06
2018-05-09T16:19:59.608Z,55.04
2018-05-09T16:21:01.488Z,55.04
2018-05-09T16:22:03.389Z,55.22
2018-05-09T16:23:05.286Z,55.32
2018-05-09T16:24:07.134Z,55.22
2018-05-09T16:25:08.969Z,55.10
2018-05-09T16:26:10.875Z,55.62
2018-05-09T16:27:12.769Z,55.90
2018-05-09T16:28:14.646Z,56.10
2018-05-09T16:29:28.801Z,56.20
2018-05-09T16:30:30.710Z,55.62
2018-05-09T16:31:32.604Z,55.13
2018-05-09T16:32:34.484Z,55.42
2018-05-09T16:33:36.305Z,55.04
2018-05-09T16:34:38.147Z,54.94
2018-05-09T16:35:40.028Z,55.22
2018-05-09T16:36:41.916Z,54.94
2018-05-09T16:37:43.802Z,54.84
2018-05-09T16:38:57.974Z,54.84
2018-05-09T16:39:59.881Z,54.81
2018-05-09T16:41:01.779Z,55.20
2018-05-09T16:42:03.654Z,54.91
2018-05-09T16:43:05.476Z,55.10
2018-05-09T16:44:07.291Z,55.10
2018-05-09T16:45:09.176Z,55.10
2018-05-09T16:46:11.064Z,54.52
2018-05-09T16:47:12.949Z,54.52
2018-05-09T16:48:27.171Z,54.79
2018-05-09T16:49:29.045Z,55.00
2018-05-09T16:50:30.930Z,55.00
2018-05-09T16:51:32.828Z,54.71
2018-05-09T16:52:34.673Z,55.62
2018-05-09T16:53:36.512Z,55.13
2018-05-09T16:54:38.414Z,54.84
2018-05-09T16:55:40.318Z,53.87
2018-05-09T16:56:42.218Z,53.39
2018-05-09T16:57:56.428Z,53.00
2018-05-09T16:58:58.323Z,53.58
2018-05-09T17:00:00.199Z,53.09
2018-05-09T17:01:02.151Z,52.73
2018-05-09T17:02:03.914Z,52.64
2018-05-09T17:03:05.758Z,52.44
2018-05-09T17:04:07.632Z,52.64
2018-05-09T17:05:09.508Z,51.98
2018-05-09T17:06:11.404Z,52.34
2018-05-09T17:07:25.657Z,51.98
2018-05-09T17:08:27.434Z,51.69
2018-05-09T17:09:29.338Z,51.50
2018-05-09T17:10:31.241Z,50.94
2018-05-09T17:11:33.084Z,50.04
2018-05-09T17:12:34.925Z,49.27
2018-05-09T17:13:36.833Z,49.07
2018-05-09T17:14:38.740Z,48.78
2018-05-09T17:15:40.629Z,48.61
2018-05-09T17:16:54.786Z,48.80
2018-05-09T17:17:56.674Z,48.61
2018-05-09T17:18:58.573Z,48.13
2018-05-09T17:20:00.458Z,48.90
2018-05-09T17:21:02.302Z,48.32
2018-05-09T17:22:04.140Z,48.80
2018-05-09T17:23:06.044Z,48.61
2018-05-09T17:24:07.943Z,48.61
2018-05-09T17:25:09.840Z,48.61
2018-05-09T17:26:24.015Z,48.61
2018-05-09T17:27:25.918Z,49.10
2018-05-09T17:28:27.798Z,49.10
2018-05-09T17:29:29.702Z,49.10
2018-05-09T17:30:31.589Z,49.29
2018-05-09T17:31:33.337Z,49.29
2018-05-09T17:32:35.242Z,49.39
2018-05-09T17:33:37.133Z,49.56
2018-05-09T17:34:39.035Z,49.56
2018-05-09T17:35:53.214Z,49.66
2018-05-09T17:36:55.128Z,50.24
2018-05-09T17:37:57.014Z,50.21
2018-05-09T17:38:58.900Z,50.12
2018-05-09T17:40:00.720Z,50.60
2018-05-09T17:41:02.537Z,50.79
2018-05-09T17:42:04.409Z,50.57
2018-05-09T17:43:06.305Z,50.48
2018-05-09T17:44:08.203Z,50.77
2018-05-09T17:45:22.358Z,51.72
2018-05-09T17:46:24.231Z,51.62
2018-05-09T17:47:26.104Z,51.72
2018-05-09T17:48:27.990Z,52.00
2018-05-09T17:49:29.816Z,52.58
2018-05-09T17:50:31.624Z,52.78
2018-05-09T17:51:33.530Z,52.36
2018-05-09T17:52:35.421Z,52.36
2018-05-09T17:53:37.320Z,52.08
2018-05-09T17:54:51.494Z,52.17
2018-05-09T17:55:53.370Z,52.17
2018-05-09T17:56:55.259Z,52.17
2018-05-09T17:57:57.136Z,52.36
2018-05-09T17:58:59.016Z,52.27
2018-05-09T18:00:00.770Z,52.08
2018-05-09T18:01:02.657Z,52.17
2018-05-09T18:02:04.537Z,52.17
2018-05-09T18:03:06.402Z,52.17
2018-05-09T18:04:20.554Z,51.98
2018-05-09T18:05:22.447Z,52.27
2018-05-09T18:06:24.328Z,52.56
2018-05-09T18:07:26.231Z,52.27
2018-05-09T18:08:28.064Z,52.95
2018-05-09T18:09:29.902Z,52.66
2018-05-09T18:10:31.796Z,52.56
2018-05-09T18:11:33.671Z,52.85
2018-05-09T18:12:35.554Z,52.56
2018-05-09T18:13:49.691Z,52.85
2018-05-09T18:14:51.567Z,52.95
2018-05-09T18:15:53.451Z,53.04
2018-05-09T18:16:55.345Z,52.56
2018-05-09T18:17:57.154Z,52.85
2018-05-09T18:18:58.967Z,53.04
2018-05-09T18:20:00.842Z,53.23
2018-05-09T18:21:02.713Z,53.04
2018-05-09T18:22:04.622Z,53.33
2018-05-09T18:23:18.778Z,53.72
2018-05-09T18:24:20.655Z,53.91
2018-05-09T18:25:22.560Z,54.21
2018-05-09T18:26:24.451Z,54.11
2018-05-09T18:27:26.255Z,54.01
2018-05-09T18:28:28.073Z,54.01
2018-05-09T18:29:29.949Z,54.08
2018-05-09T18:30:31.825Z,54.08
2018-05-09T18:31:33.726Z,54.27
2018-05-09T18:32:47.895Z,53.69
2018-05-09T18:33:49.790Z,53.59
2018-05-09T18:34:51.687Z,53.69
2018-05-09T18:35:53.585Z,54.17
2018-05-09T18:36:55.425Z,54.27
2018-05-09T18:37:57.264Z,54.08
2018-05-09T18:38:59.165Z,54.17
2018-05-09T18:40:01.034Z,54.08
2018-05-09T18:41:02.985Z,54.17
2018-05-09T18:42:17.144Z,54.08
2018-05-09T18:43:19.040Z,54.08
2018-05-09T18:44:20.918Z,53.99
2018-05-09T18:45:22.813Z,54.44
2018-05-09T18:46:24.810Z,54.35
2018-05-09T18:47:26.459Z,54.35
2018-05-09T18:48:28.330Z,54.35
2018-05-09T18:49:30.199Z,55.02
2018-05-09T18:50:32.096Z,54.53
2018-05-09T18:51:46.234Z,54.63
2018-05-09T18:52:48.114Z,54.93
2018-05-09T18:53:50.012Z,54.83
2018-05-09T18:54:51.904Z,54.73
2018-05-09T18:55:53.717Z,54.71
2018-05-09T18:56:55.523Z,54.93
2018-05-09T18:57:57.400Z,54.99
2018-05-09T18:58:59.290Z,55.19
2018-05-09T19:00:01.156Z,54.99
2018-05-09T19:01:15.348Z,54.90
2018-05-09T19:02:17.218Z,54.99
2018-05-09T19:03:19.085Z,54.80
2018-05-09T19:04:20.960Z,54.90
2018-05-09T19:05:22.798Z,55.09
2018-05-09T19:06:24.649Z,55.09
2018-05-09T19:07:26.522Z,54.99
2018-05-09T19:08:28.414Z,55.29
2018-05-09T19:09:30.307Z,55.19
2018-05-09T19:10:44.480Z,54.58
2018-05-09T19:11:46.343Z,55.26
2018-05-09T19:12:48.212Z,55.45
2018-05-09T19:13:50.078Z,55.55
2018-05-09T19:14:51.896Z,55.74
2018-05-09T19:15:53.709Z,56.03
2018-05-09T19:16:55.573Z,56.13
2018-05-09T19:17:57.466Z,56.58
2018-05-09T19:18:59.337Z,56.39
2018-05-09T19:20:13.502Z,56.96
2018-05-09T19:21:15.375Z,56.77
2018-05-09T19:22:17.246Z,56.87
2018-05-09T19:23:19.146Z,56.77
2018-05-09T19:24:20.987Z,56.87
2018-05-09T19:25:22.812Z,56.77
2018-05-09T19:26:24.674Z,56.96
2018-05-09T19:27:26.549Z,57.54
2018-05-09T19:28:28.425Z,57.35
2018-05-09T19:29:42.590Z,57.35
2018-05-09T19:30:44.465Z,57.16
2018-05-09T19:31:46.361Z,57.06
2018-05-09T19:32:48.245Z,56.68
2018-05-09T19:33:50.049Z,57.06
2018-05-09T19:34:51.857Z,56.68
2018-05-09T19:35:53.725Z,56.68
2018-05-09T19:36:55.619Z,57.16
2018-05-09T19:37:57.520Z,57.35
2018-05-09T19:39:11.686Z,57.42
2018-05-09T19:40:13.581Z,57.23
2018-05-09T19:41:15.474Z,56.65
2018-05-09T19:42:17.369Z,56.87
2018-05-09T19:43:19.182Z,57.04
2018-05-09T19:44:20.982Z,56.56
2018-05-09T19:45:22.855Z,56.39
2018-05-09T19:46:24.742Z,56.56
2018-05-09T19:47:26.618Z,56.65
2018-05-09T19:48:40.770Z,56.36
2018-05-09T19:49:42.657Z,56.07
2018-05-09T19:50:44.552Z,56.36
2018-05-09T19:51:46.420Z,56.39
2018-05-09T19:52:48.225Z,56.46
2018-05-09T19:53:50.031Z,55.88
2018-05-09T19:54:51.900Z,55.49
2018-05-09T19:55:53.774Z,55.78
2018-05-09T19:56:55.664Z,55.78
2018-05-09T19:58:09.850Z,55.81
2018-05-09T19:59:11.766Z,55.68
2018-05-09T20:00:13.724Z,55.98
2018-05-09T20:01:15.718Z,55.68
2018-05-09T20:02:17.580Z,55.78
2018-05-09T20:03:19.424Z,55.49
2018-05-09T20:04:21.370Z,55.68
2018-05-09T20:05:23.308Z,55.98
2018-05-09T20:06:25.204Z,55.78
2018-05-09T20:07:39.404Z,55.88
2018-05-09T20:08:41.374Z,55.78
2018-05-09T20:09:43.170Z,55.88
2018-05-09T20:10:45.065Z,55.78
2018-05-09T20:11:46.897Z,56.26
2018-05-09T20:12:48.724Z,56.36
2018-05-09T20:13:50.665Z,56.36
2018-05-09T20:14:52.467Z,56.36
2018-05-09T20:15:54.355Z,56.26
2018-05-09T20:17:08.521Z,56.74
2018-05-09T20:18:10.392Z,57.14
2018-05-09T20:19:12.268Z,57.01
2018-05-09T20:20:14.155Z,57.52
2018-05-09T20:21:15.965Z,57.87
2018-05-09T20:22:17.777Z,58.26
2018-05-09T20:23:19.667Z,58.55
2018-05-09T20:24:21.537Z,58.55
2018-05-09T20:25:23.412Z,58.94
2018-05-09T20:26:37.578Z,59.03
2018-05-09T20:27:39.444Z,59.61
2018-05-09T20:28:41.321Z,59.90
2018-05-09T20:29:43.210Z,59.80
2018-05-09T20:30:45.075Z,60.19
2018-05-09T20:33:03.621Z,60.77
2018-05-09T20:34:05.486Z,60.64
2018-05-09T20:35:07.397Z,60.74
2018-05-09T20:36:21.560Z,61.03
2018-05-09T20:37:23.433Z,61.61
2018-05-09T20:38:25.308Z,61.80
2018-05-09T20:39:27.174Z,62.09
2018-05-09T20:40:28.979Z,62.73
2018-05-09T20:41:30.906Z,62.54
2018-05-09T20:42:32.651Z,63.60
2018-05-09T20:43:34.523Z,63.09
2018-05-09T20:44:36.414Z,63.18
2018-05-09T20:45:50.560Z,63.95
2018-05-09T20:46:52.455Z,64.02
2018-05-09T20:47:54.439Z,64.40
2018-05-09T20:48:56.215Z,64.40
2018-05-09T20:49:58.030Z,65.08
2018-05-09T20:50:59.862Z,64.21
2018-05-09T20:52:01.754Z,64.69
2018-05-09T20:53:03.623Z,64.21
2018-05-09T20:54:05.464Z,64.05
2018-05-09T20:55:19.594Z,64.15
2018-05-09T20:56:21.470Z,63.95
2018-05-09T20:57:23.364Z,64.15
2018-05-09T20:58:25.254Z,64.05
2018-05-09T20:59:27.065Z,63.95
2018-05-09T21:00:28.896Z,63.85
2018-05-09T21:01:30.784Z,64.05
2018-05-09T21:02:32.656Z,63.85
2018-05-09T21:03:34.555Z,64.08
2018-05-09T21:04:48.709Z,63.98
2018-05-09T21:05:50.588Z,63.89
2018-05-09T21:06:52.481Z,64.18
